createdAt,value
2023-06-26T00:00:29.288Z,143.54
2023-06-26T00:01:29.338Z,147.25
2023-06-26T00:02:29.291Z,143.48
2023-06-26T00:03:29.325Z,147.44
2023-06-26T00:04:29.289Z,142.72
2023-06-26T00:05:29.323Z,145.76
2023-06-26T00:06:29.296Z,146.39
2023-06-26T00:07:29.317Z,148.74
2023-06-26T00:08:29.272Z,144.15
2023-06-26T00:09:29.256Z,145.45
2023-06-26T00:10:29.291Z,144.41
2023-06-26T00:11:29.274Z,143.32
2023-06-26T00:12:29.279Z,143.27
2023-06-26T00:13:29.294Z,145.40
2023-06-26T00:14:29.314Z,147.33
2023-06-26T00:15:29.233Z,147.06
2023-06-26T00:16:29.244Z,143.35
2023-06-26T00:17:29.260Z,148.10
2023-06-26T00:18:29.246Z,146.32
2023-06-26T00:19:29.251Z,145.14
2023-06-26T00:20:29.222Z,145.35
2023-06-26T00:21:29.222Z,145.82
2023-06-26T00:22:29.258Z,148.47
2023-06-26T00:23:29.241Z,144.64
2023-06-26T00:24:29.277Z,145.28
2023-06-26T00:25:29.229Z,145.88
2023-06-26T00:26:29.227Z,147.27
2023-06-26T00:27:29.221Z,145.85
2023-06-26T00:28:29.198Z,147.02
2023-06-26T00:29:29.201Z,146.16
2023-06-26T00:30:29.178Z,145.08
2023-06-26T00:31:29.241Z,149.76
2023-06-26T00:32:29.179Z,147.37
2023-06-26T00:33:29.251Z,145.96
2023-06-26T00:34:29.240Z,145.89
2023-06-26T00:35:29.265Z,146.88
2023-06-26T00:36:29.255Z,147.61
2023-06-26T00:37:29.248Z,146.55
2023-06-26T00:38:29.298Z,147.67
2023-06-26T00:39:29.281Z,148.61
2023-06-26T00:40:29.311Z,146.91
2023-06-26T00:41:29.296Z,152.57
2023-06-26T00:42:29.285Z,145.35
2023-06-26T00:43:29.302Z,148.59
2023-06-26T00:44:29.300Z,150.51
2023-06-26T00:45:38.240Z,146.92
2023-06-26T00:46:30.287Z,147.24
2023-06-26T00:47:29.356Z,147.52
2023-06-26T00:48:29.282Z,148.10
2023-06-26T00:49:29.255Z,150.19
2023-06-26T00:50:29.259Z,149.36
2023-06-26T00:51:29.242Z,149.82
2023-06-26T00:52:29.315Z,150.09
2023-06-26T00:53:29.259Z,151.43
2023-06-26T00:54:29.256Z,149.74
2023-06-26T00:55:29.234Z,149.44
2023-06-26T00:56:29.238Z,149.65
2023-06-26T00:57:29.249Z,151.30
2023-06-26T00:58:29.232Z,148.78
2023-06-26T00:59:29.207Z,148.98
2023-06-26T01:00:29.221Z,146.55
2023-06-26T01:01:29.166Z,148.71
2023-06-26T01:02:29.247Z,151.44
2023-06-26T01:03:29.218Z,150.08
2023-06-26T01:04:29.171Z,149.22
2023-06-26T01:05:29.169Z,148.12
2023-06-26T01:06:29.172Z,148.80
2023-06-26T01:07:29.204Z,151.28
2023-06-26T01:08:29.140Z,150.27
2023-06-26T01:09:29.125Z,149.06
2023-06-26T01:10:29.374Z,149.77
2023-06-26T01:11:29.103Z,149.33
2023-06-26T01:12:29.110Z,149.50
2023-06-26T01:13:29.096Z,149.95
2023-06-26T01:14:29.112Z,152.53
2023-06-26T01:15:29.102Z,148.46
2023-06-26T01:16:29.089Z,151.02
2023-06-26T01:17:29.129Z,150.50
2023-06-26T01:18:29.050Z,153.67
2023-06-26T01:19:29.083Z,152.99
2023-06-26T01:20:29.048Z,152.59
2023-06-26T01:21:29.081Z,153.31
2023-06-26T01:22:29.067Z,153.48
2023-06-26T01:23:29.036Z,150.84
2023-06-26T01:24:29.019Z,150.97
2023-06-26T01:25:29.016Z,152.14
2023-06-26T01:26:29.009Z,151.19
2023-06-26T01:27:29.022Z,152.78
2023-06-26T01:28:29.025Z,152.16
2023-06-26T01:29:29.032Z,153.79
2023-06-26T01:30:29.045Z,150.91
2023-06-26T01:31:29.065Z,151.25
2023-06-26T01:32:29.067Z,150.77
2023-06-26T01:33:29.070Z,149.43
2023-06-26T01:34:29.067Z,151.03
2023-06-26T01:35:29.116Z,151.36
2023-06-26T01:36:29.154Z,149.18
2023-06-26T01:37:29.166Z,152.79
2023-06-26T01:38:29.202Z,149.47
2023-06-26T01:39:29.214Z,153.82
2023-06-26T01:40:29.284Z,153.46
2023-06-26T01:41:29.286Z,154.15
2023-06-26T01:42:29.345Z,152.91
2023-06-26T01:43:29.339Z,151.08
2023-06-26T01:44:29.388Z,154.36
2023-06-26T01:45:29.423Z,150.90
2023-06-26T01:46:29.569Z,153.16
2023-06-26T01:47:29.554Z,154.98
2023-06-26T01:48:29.498Z,153.44
2023-06-26T01:49:29.521Z,152.37
2023-06-26T01:50:29.575Z,151.57
2023-06-26T01:51:29.582Z,151.95
2023-06-26T01:52:29.658Z,154.21
2023-06-26T01:53:29.679Z,153.97
2023-06-26T01:54:29.690Z,153.66
2023-06-26T01:55:29.667Z,152.40
2023-06-26T01:56:29.685Z,151.71
2023-06-26T01:57:29.703Z,151.40
2023-06-26T01:58:29.787Z,152.63
2023-06-26T01:59:29.780Z,155.79
2023-06-26T02:00:29.811Z,152.26
2023-06-26T02:01:29.852Z,154.84
2023-06-26T02:02:29.895Z,151.87
2023-06-26T02:03:29.970Z,152.26
2023-06-26T02:04:29.872Z,153.47
2023-06-26T02:05:29.898Z,154.52
2023-06-26T02:06:29.917Z,153.10
2023-06-26T02:07:29.957Z,154.94
2023-06-26T02:08:29.917Z,152.90
2023-06-26T02:09:29.928Z,154.27
2023-06-26T02:10:29.939Z,155.65
2023-06-26T02:11:29.917Z,154.09
2023-06-26T02:12:29.956Z,153.14
2023-06-26T02:13:29.956Z,153.41
2023-06-26T02:14:29.975Z,153.59
2023-06-26T02:15:29.970Z,153.03
2023-06-26T02:16:29.973Z,154.08
2023-06-26T02:17:30.003Z,151.46
2023-06-26T02:18:29.961Z,154.61
2023-06-26T02:19:29.969Z,154.63
2023-06-26T02:20:30.041Z,153.10
2023-06-26T02:21:30.003Z,153.89
2023-06-26T02:22:30.049Z,151.50
2023-06-26T02:23:30.056Z,152.26
2023-06-26T02:24:30.036Z,154.84
2023-06-26T02:25:30.781Z,156.09
2023-06-26T02:26:30.061Z,152.83
2023-06-26T02:27:30.098Z,153.21
2023-06-26T02:28:30.057Z,154.67
2023-06-26T02:29:30.074Z,155.53
2023-06-26T02:30:30.073Z,156.55
2023-06-26T02:31:30.108Z,151.57
2023-06-26T02:32:30.129Z,152.15
2023-06-26T02:33:30.189Z,155.19
2023-06-26T02:34:30.201Z,152.06
2023-06-26T02:35:30.251Z,153.94
2023-06-26T02:36:30.315Z,150.02
2023-06-26T02:37:30.311Z,151.73
2023-06-26T02:38:30.288Z,154.76
2023-06-26T02:39:30.334Z,154.18
2023-06-26T02:40:30.306Z,154.94
2023-06-26T02:41:30.344Z,154.68
2023-06-26T02:42:30.365Z,154.73
2023-06-26T02:43:30.401Z,153.10
2023-06-26T02:44:30.409Z,155.34
2023-06-26T02:45:30.435Z,149.15
2023-06-26T02:46:30.495Z,151.42
2023-06-26T02:47:30.508Z,153.83
2023-06-26T02:48:30.444Z,153.07
2023-06-26T02:49:30.482Z,155.59
2023-06-26T02:50:30.496Z,150.17
2023-06-26T02:51:30.873Z,153.66
2023-06-26T02:52:30.496Z,154.80
2023-06-26T02:53:30.541Z,154.51
2023-06-26T02:54:30.504Z,151.00
2023-06-26T02:55:30.550Z,155.08
2023-06-26T02:56:30.552Z,151.43
2023-06-26T02:57:30.554Z,152.57
2023-06-26T02:58:30.553Z,155.58
2023-06-26T02:59:30.546Z,153.43
2023-06-26T03:00:30.610Z,152.77
2023-06-26T03:01:30.709Z,153.12
2023-06-26T03:02:30.635Z,155.43
2023-06-26T03:03:30.623Z,153.28
2023-06-26T03:04:30.710Z,152.12
2023-06-26T03:05:30.670Z,156.33
2023-06-26T03:06:30.673Z,151.75
2023-06-26T03:07:30.686Z,154.11
2023-06-26T03:08:30.717Z,150.95
2023-06-26T03:09:30.740Z,152.41
2023-06-26T03:10:30.798Z,156.55
2023-06-26T03:11:30.821Z,156.79
2023-06-26T03:12:30.865Z,153.64
2023-06-26T03:13:30.914Z,150.57
2023-06-26T03:14:30.924Z,154.01
2023-06-26T03:15:30.984Z,153.54
2023-06-26T03:16:31.056Z,152.83
2023-06-26T03:17:31.075Z,155.83
2023-06-26T03:18:31.157Z,153.56
2023-06-26T03:19:31.140Z,151.98
2023-06-26T03:20:31.149Z,152.71
2023-06-26T03:21:31.192Z,151.77
2023-06-26T03:22:31.184Z,148.95
2023-06-26T03:23:31.165Z,149.40
2023-06-26T03:24:31.199Z,154.74
2023-06-26T03:25:31.235Z,153.01
2023-06-26T03:26:31.310Z,150.36
2023-06-26T03:27:31.353Z,151.46
2023-06-26T03:28:31.402Z,153.07
2023-06-26T03:29:31.411Z,153.06
2023-06-26T03:30:31.489Z,151.08
2023-06-26T03:31:31.481Z,151.82
2023-06-26T03:32:31.486Z,155.05
2023-06-26T03:33:31.515Z,149.73
2023-06-26T03:34:31.477Z,152.00
2023-06-26T03:35:31.536Z,151.31
2023-06-26T03:36:31.520Z,151.00
2023-06-26T03:37:31.517Z,151.90
2023-06-26T03:38:31.575Z,150.72
2023-06-26T03:39:31.622Z,153.02
2023-06-26T03:40:31.584Z,150.91
2023-06-26T03:41:31.589Z,150.47
2023-06-26T03:42:31.599Z,149.01
2023-06-26T03:43:31.583Z,150.60
2023-06-26T03:44:31.601Z,152.97
2023-06-26T03:45:31.581Z,151.29
2023-06-26T03:46:31.658Z,150.53
2023-06-26T03:47:31.663Z,148.34
2023-06-26T03:48:31.624Z,147.21
2023-06-26T03:49:31.635Z,148.41
2023-06-26T03:50:31.645Z,144.86
2023-06-26T03:51:31.711Z,144.39
2023-06-26T03:52:31.783Z,146.66
2023-06-26T03:53:31.823Z,145.94
2023-06-26T03:54:31.869Z,147.13
2023-06-26T03:55:31.914Z,145.02
2023-06-26T03:56:31.983Z,149.18
2023-06-26T03:57:32.000Z,146.99
2023-06-26T03:58:32.023Z,144.17
2023-06-26T03:59:32.115Z,142.89
2023-06-26T04:00:32.156Z,145.19
2023-06-26T04:01:32.243Z,143.48
2023-06-26T04:02:32.276Z,145.80
2023-06-26T04:03:32.324Z,143.64
2023-06-26T04:04:32.294Z,147.37
2023-06-26T04:05:32.361Z,143.04
2023-06-26T04:06:32.340Z,142.23
2023-06-26T04:07:32.431Z,137.63
2023-06-26T04:08:32.380Z,130.72
2023-06-26T04:09:32.421Z,121.75
2023-06-26T04:10:32.445Z,117.81
2023-06-26T04:11:32.505Z,116.04
2023-06-26T04:12:32.592Z,114.30
2023-06-26T04:13:32.621Z,105.66
2023-06-26T04:14:32.643Z,100.86
2023-06-26T04:15:32.676Z,101.33
2023-06-26T04:16:32.708Z,90.87
2023-06-26T04:17:32.808Z,77.17
2023-06-26T04:18:32.779Z,73.25
2023-06-26T04:19:33.560Z,64.35
2023-06-26T04:20:32.802Z,60.40
2023-06-26T04:21:32.829Z,52.23
2023-06-26T04:22:32.819Z,54.80
2023-06-26T04:23:32.828Z,44.35
2023-06-26T04:24:32.881Z,43.22
2023-06-26T04:25:32.925Z,43.61
2023-06-26T04:26:33.012Z,41.53
2023-06-26T04:27:35.170Z,38.45
2023-06-26T04:28:32.983Z,33.14
2023-06-26T04:29:32.963Z,29.01
2023-06-26T04:30:33.007Z,26.41
2023-06-26T04:31:33.055Z,26.25
2023-06-26T04:32:33.020Z,25.00
2023-06-26T04:33:32.935Z,26.19
2023-06-26T04:34:32.949Z,27.78
2023-06-26T04:35:32.903Z,29.52
2023-06-26T04:36:32.910Z,25.04
2023-06-26T04:37:32.923Z,25.00
2023-06-26T04:38:32.891Z,30.38
2023-06-26T04:39:32.886Z,35.48
2023-06-26T04:40:32.907Z,25.00
2023-06-26T04:41:32.862Z,32.44
2023-06-26T04:42:32.913Z,30.19
2023-06-26T04:43:32.885Z,29.67
2023-06-26T04:44:32.945Z,32.51
2023-06-26T04:45:32.916Z,36.97
2023-06-26T04:46:32.885Z,39.18
2023-06-26T04:47:32.950Z,33.02
2023-06-26T04:48:32.861Z,31.60
2023-06-26T04:49:32.856Z,26.57
2023-06-26T04:50:32.845Z,26.63
2023-06-26T04:51:32.809Z,24.93
2023-06-26T04:52:32.817Z,30.21
2023-06-26T04:53:32.833Z,26.68
2023-06-26T04:54:32.820Z,33.31
2023-06-26T04:55:32.776Z,31.28
2023-06-26T04:56:32.811Z,27.65
2023-06-26T04:57:32.816Z,25.62
2023-06-26T04:58:32.799Z,26.73
2023-06-26T04:59:32.783Z,26.94
2023-06-26T05:00:32.771Z,30.37
2023-06-26T05:01:32.804Z,39.62
2023-06-26T05:02:32.889Z,45.13
2023-06-26T05:03:32.869Z,52.26
2023-06-26T05:04:32.750Z,55.02
2023-06-26T05:05:32.759Z,54.47
2023-06-26T05:06:32.733Z,53.13
2023-06-26T05:07:32.728Z,48.61
2023-06-26T05:08:32.738Z,47.07
2023-06-26T05:09:32.713Z,40.85
2023-06-26T05:10:32.700Z,35.59
2023-06-26T05:11:32.713Z,25.29
2023-06-26T05:12:32.695Z,25.00
2023-06-26T05:13:32.685Z,25.97
2023-06-26T05:14:32.660Z,26.64
2023-06-26T05:15:32.677Z,26.70
2023-06-26T05:16:32.670Z,26.97
2023-06-26T05:17:32.665Z,26.00
2023-06-26T05:18:32.664Z,26.46
2023-06-26T05:19:32.658Z,26.91
2023-06-26T05:20:32.635Z,25.48
2023-06-26T05:21:32.683Z,26.11
2023-06-26T05:22:32.611Z,27.31
2023-06-26T05:23:32.624Z,26.55
2023-06-26T05:24:32.641Z,25.00
2023-06-26T05:25:32.593Z,25.00
2023-06-26T05:26:32.607Z,25.07
2023-06-26T05:27:32.610Z,24.98
2023-06-26T05:28:32.563Z,25.62
2023-06-26T05:29:32.594Z,25.98
2023-06-26T05:30:32.575Z,25.00
2023-06-26T05:31:32.711Z,25.35
2023-06-26T05:32:32.700Z,26.48
2023-06-26T05:33:32.711Z,29.15
2023-06-26T05:34:32.794Z,29.50
2023-06-26T05:35:32.915Z,30.24
2023-06-26T05:36:32.992Z,30.70
2023-06-26T05:37:32.943Z,36.56
2023-06-26T05:38:32.966Z,38.53
2023-06-26T05:39:33.041Z,35.95
2023-06-26T05:40:33.120Z,36.58
2023-06-26T05:41:33.074Z,37.60
2023-06-26T05:42:33.128Z,42.98
2023-06-26T05:43:33.186Z,48.51
2023-06-26T05:44:33.190Z,43.88
2023-06-26T05:45:33.311Z,35.94
2023-06-26T05:46:33.294Z,31.89
2023-06-26T05:47:33.490Z,27.30
2023-06-26T05:48:33.471Z,28.05
2023-06-26T05:49:33.399Z,30.95
2023-06-26T05:50:33.440Z,37.53
2023-06-26T05:51:33.500Z,40.93
2023-06-26T05:52:34.365Z,47.43
2023-06-26T05:53:33.613Z,52.08
2023-06-26T05:54:33.642Z,58.00
2023-06-26T05:55:33.625Z,56.88
2023-06-26T05:56:33.884Z,59.55
2023-06-26T05:57:33.895Z,62.10
2023-06-26T05:58:33.752Z,64.52
2023-06-26T05:59:33.771Z,56.94
2023-06-26T06:00:33.797Z,57.21
2023-06-26T06:01:33.905Z,61.48
2023-06-26T06:02:33.903Z,66.19
2023-06-26T06:03:33.910Z,69.06
2023-06-26T06:04:33.841Z,67.73
2023-06-26T06:05:33.907Z,64.69
2023-06-26T06:06:33.912Z,61.43
2023-06-26T06:07:33.961Z,71.34
2023-06-26T06:08:33.922Z,68.85
2023-06-26T06:09:33.871Z,73.41
2023-06-26T06:10:33.858Z,75.08
2023-06-26T06:11:33.877Z,75.34
2023-06-26T06:12:33.894Z,72.08
2023-06-26T06:13:33.899Z,79.25
2023-06-26T06:14:33.975Z,78.82
2023-06-26T06:15:33.981Z,85.23
2023-06-26T06:16:33.927Z,84.56
2023-06-26T06:17:33.965Z,78.00
2023-06-26T06:18:33.933Z,78.53
2023-06-26T06:19:33.932Z,79.91
2023-06-26T06:20:33.962Z,78.01
2023-06-26T06:21:34.017Z,80.85
2023-06-26T06:22:33.962Z,82.37
2023-06-26T06:23:33.991Z,81.53
2023-06-26T06:24:33.933Z,84.78
2023-06-26T06:25:33.956Z,77.73
2023-06-26T06:26:33.992Z,78.29
2023-06-26T06:27:33.969Z,80.61
2023-06-26T06:28:34.023Z,86.62
2023-06-26T06:29:34.028Z,85.09
2023-06-26T06:31:34.521Z,79.26
2023-06-26T06:32:34.115Z,80.43
2023-06-26T06:33:34.018Z,81.52
2023-06-26T06:34:34.054Z,82.28
2023-06-26T06:35:33.993Z,83.54
2023-06-26T06:36:34.483Z,86.44
2023-06-26T06:37:33.969Z,85.96
2023-06-26T06:38:34.026Z,88.90
2023-06-26T06:39:34.020Z,97.37
2023-06-26T06:40:33.964Z,107.50
2023-06-26T06:41:36.565Z,102.10
2023-06-26T06:42:33.982Z,102.37
2023-06-26T06:43:33.963Z,102.08
2023-06-26T06:44:33.956Z,102.19
2023-06-26T06:45:33.971Z,95.48
2023-06-26T06:46:33.940Z,103.67
2023-06-26T06:47:34.074Z,102.71
2023-06-26T06:48:33.911Z,103.80
2023-06-26T06:49:33.942Z,109.85
2023-06-26T06:50:33.947Z,104.61
2023-06-26T06:51:33.894Z,103.11
2023-06-26T06:52:33.919Z,102.62
2023-06-26T06:53:33.921Z,106.32
2023-06-26T06:54:33.897Z,104.13
2023-06-26T06:55:33.882Z,102.37
2023-06-26T06:56:33.876Z,101.37
2023-06-26T06:57:33.891Z,101.10
2023-06-26T06:58:33.848Z,100.20
2023-06-26T06:59:33.868Z,97.10
2023-06-26T07:00:33.898Z,97.82
2023-06-26T07:01:33.917Z,102.00
2023-06-26T07:02:33.925Z,95.59
2023-06-26T07:03:34.068Z,96.57
2023-06-26T07:04:33.866Z,93.96
2023-06-26T07:05:33.846Z,93.15
2023-06-26T07:06:33.809Z,94.28
2023-06-26T07:07:33.873Z,98.41
2023-06-26T07:08:33.772Z,95.92
2023-06-26T07:09:33.864Z,100.04
2023-06-26T07:10:33.845Z,108.01
2023-06-26T07:11:33.780Z,104.85
2023-06-26T07:12:34.015Z,106.44
2023-06-26T07:13:33.759Z,108.65
2023-06-26T07:14:33.789Z,107.84
2023-06-26T07:15:33.743Z,108.62
2023-06-26T07:16:33.805Z,113.50
2023-06-26T07:17:34.286Z,118.04
2023-06-26T07:18:33.723Z,109.54
2023-06-26T07:19:33.694Z,105.03
2023-06-26T07:20:33.688Z,107.67
2023-06-26T07:21:33.696Z,101.55
2023-06-26T07:22:33.769Z,100.76
2023-06-26T07:23:33.728Z,104.40
2023-06-26T07:24:33.969Z,110.97
2023-06-26T07:25:33.689Z,116.10
2023-06-26T07:26:44.678Z,108.56
2023-06-26T07:27:34.690Z,108.79
2023-06-26T07:28:33.655Z,103.11
2023-06-26T07:29:33.666Z,106.87
2023-06-26T07:30:33.673Z,111.87
2023-06-26T07:31:33.732Z,110.68
2023-06-26T07:32:33.669Z,106.72
2023-06-26T07:33:33.597Z,111.38
2023-06-26T07:34:33.636Z,124.53
2023-06-26T07:35:33.596Z,136.77
2023-06-26T07:36:33.608Z,131.49
2023-06-26T07:37:33.611Z,128.08
2023-06-26T07:38:33.632Z,123.10
2023-06-26T07:39:33.555Z,105.51
2023-06-26T07:40:33.689Z,94.94
2023-06-26T07:41:33.546Z,87.22
2023-06-26T07:42:33.532Z,85.89
2023-06-26T07:43:33.544Z,82.56
2023-06-26T07:44:33.515Z,81.06
2023-06-26T07:45:33.544Z,81.65
2023-06-26T07:46:33.546Z,83.41
2023-06-26T07:47:33.516Z,80.44
2023-06-26T07:48:33.521Z,78.30
2023-06-26T07:49:33.483Z,70.81
2023-06-26T07:50:33.491Z,52.90
2023-06-26T07:51:33.503Z,43.65
2023-06-26T07:52:33.517Z,32.80
2023-06-26T07:53:33.525Z,25.62
2023-06-26T07:54:33.496Z,38.23
2023-06-26T07:55:33.490Z,39.04
2023-06-26T07:56:33.482Z,23.15
2023-06-26T07:57:33.487Z,42.28
2023-06-26T07:58:33.488Z,26.90
2023-06-26T07:59:33.527Z,41.90
2023-06-26T08:00:33.488Z,33.71
2023-06-26T08:01:33.507Z,33.53
2023-06-26T08:02:33.534Z,34.11
2023-06-26T08:03:35.447Z,33.66
2023-06-26T08:04:34.016Z,39.91
2023-06-26T08:05:33.979Z,35.75
2023-06-26T08:06:33.767Z,25.49
2023-06-26T08:07:33.844Z,34.31
2023-06-26T08:08:33.798Z,36.92
2023-06-26T08:09:33.799Z,40.53
2023-06-26T08:10:33.850Z,52.34
2023-06-26T08:11:33.836Z,57.73
2023-06-26T08:12:33.936Z,41.40
2023-06-26T08:13:33.880Z,52.54
2023-06-26T08:14:33.966Z,49.23
2023-06-26T08:15:33.980Z,51.41
2023-06-26T08:16:33.973Z,48.23
2023-06-26T08:17:34.055Z,56.11
2023-06-26T08:18:34.057Z,67.48
2023-06-26T08:19:34.046Z,77.82
2023-06-26T08:20:34.056Z,78.90
2023-06-26T08:21:34.085Z,81.44
2023-06-26T08:22:34.085Z,87.85
2023-06-26T08:23:34.056Z,88.34
2023-06-26T08:24:34.066Z,86.26
2023-06-26T08:25:34.039Z,90.12
2023-06-26T08:26:34.047Z,100.87
2023-06-26T08:27:34.093Z,96.76
2023-06-26T08:28:34.552Z,102.07
2023-06-26T08:29:34.170Z,93.39
2023-06-26T08:30:34.186Z,83.47
2023-06-26T08:31:34.352Z,64.98
2023-06-26T08:32:34.304Z,67.78
2023-06-26T08:33:34.295Z,38.57
2023-06-26T08:34:34.360Z,41.30
2023-06-26T08:35:34.436Z,24.90
2023-06-26T08:36:34.476Z,23.89
2023-06-26T08:37:34.540Z,25.00
2023-06-26T08:38:34.592Z,23.25
2023-06-26T08:39:34.615Z,25.19
2023-06-26T08:40:34.670Z,35.33
2023-06-26T08:41:34.720Z,17.19
2023-06-26T08:42:34.752Z,11.18
2023-06-26T08:43:34.790Z,25.00
2023-06-26T08:45:35.069Z,55.36
2023-06-26T08:46:35.088Z,79.49
2023-06-26T08:47:35.049Z,94.46
2023-06-26T08:48:35.069Z,108.19
2023-06-26T08:49:35.096Z,111.80
2023-06-26T08:50:35.153Z,134.17
2023-06-26T08:51:35.283Z,128.06
2023-06-26T08:52:36.122Z,123.04
2023-06-26T08:53:35.366Z,60.16
2023-06-26T08:54:35.390Z,66.84
2023-06-26T08:55:35.451Z,69.38
2023-06-26T08:56:35.446Z,70.06
2023-06-26T08:57:35.528Z,77.95
2023-06-26T08:58:35.546Z,70.87
2023-06-26T08:59:35.617Z,63.92
2023-06-26T09:00:35.721Z,33.69
2023-06-26T09:01:35.712Z,31.68
2023-06-26T09:02:35.777Z,32.27
2023-06-26T09:03:35.872Z,25.00
2023-06-26T09:04:35.780Z,44.18
2023-06-26T09:05:35.807Z,42.20
2023-06-26T09:06:35.872Z,52.38
2023-06-26T09:07:35.910Z,25.82
2023-06-26T09:08:35.920Z,27.41
2023-06-26T09:09:35.920Z,24.48
2023-06-26T09:10:36.210Z,26.53
2023-06-26T09:11:36.017Z,25.00
2023-06-26T09:12:36.070Z,37.49
2023-06-26T09:13:36.129Z,42.29
2023-06-26T09:14:36.143Z,47.94
2023-06-26T09:15:36.230Z,63.02
2023-06-26T09:16:36.515Z,73.67
2023-06-26T09:17:36.315Z,90.42
2023-06-26T09:18:36.518Z,80.19
2023-06-26T09:19:37.297Z,93.93
2023-06-26T09:20:36.412Z,89.13
2023-06-26T09:21:36.475Z,91.23
2023-06-26T09:22:36.441Z,74.02
2023-06-26T09:23:36.566Z,77.00
2023-06-26T09:24:36.565Z,65.41
2023-06-26T09:25:36.612Z,76.43
2023-06-26T09:26:36.713Z,55.03
2023-06-26T09:27:36.795Z,70.14
2023-06-26T09:28:36.850Z,47.48
2023-06-26T09:29:36.803Z,73.22
2023-06-26T09:30:37.527Z,79.13
2023-06-26T09:31:41.953Z,100.15
2023-06-26T09:32:38.112Z,91.90
2023-06-26T09:33:36.925Z,96.02
2023-06-26T09:34:36.943Z,64.95
2023-06-26T09:35:36.894Z,72.31
2023-06-26T09:36:39.779Z,75.26
2023-06-26T09:37:36.897Z,68.26
2023-06-26T09:38:37.091Z,91.22
2023-06-26T09:39:36.918Z,96.64
2023-06-26T09:40:37.305Z,117.16
2023-06-26T09:41:36.865Z,120.70
2023-06-26T09:42:36.838Z,89.21
2023-06-26T09:43:37.520Z,86.45
2023-06-26T09:44:36.820Z,69.82
2023-06-26T09:45:36.903Z,74.00
2023-06-26T09:46:36.870Z,82.87
2023-06-26T09:47:36.858Z,66.11
2023-06-26T09:48:36.886Z,64.22
2023-06-26T09:49:36.780Z,75.08
2023-06-26T09:50:36.873Z,84.72
2023-06-26T09:51:36.757Z,64.64
2023-06-26T09:52:36.793Z,59.64
2023-06-26T09:53:36.812Z,68.59
2023-06-26T09:54:36.756Z,55.41
2023-06-26T09:55:36.798Z,75.12
2023-06-26T09:56:36.774Z,68.54
2023-06-26T09:57:36.714Z,87.88
2023-06-26T09:58:36.749Z,77.34
2023-06-26T09:59:36.721Z,74.92
2023-06-26T10:00:37.213Z,76.44
2023-06-26T10:01:36.837Z,98.56
2023-06-26T10:02:36.776Z,87.92
2023-06-26T10:03:37.557Z,108.14
2023-06-26T10:04:36.949Z,119.65
2023-06-26T10:05:36.690Z,112.22
2023-06-26T10:06:36.635Z,134.34
2023-06-26T10:07:36.729Z,120.48
2023-06-26T10:08:36.638Z,104.02
2023-06-26T10:09:36.635Z,95.46
2023-06-26T10:10:37.803Z,105.81
2023-06-26T10:11:36.688Z,109.45
2023-06-26T10:12:36.652Z,106.73
2023-06-26T10:13:36.639Z,87.56
2023-06-26T10:14:36.642Z,86.08
2023-06-26T10:15:36.655Z,96.65
2023-06-26T10:16:36.595Z,117.34
2023-06-26T10:17:36.658Z,130.29
2023-06-26T10:18:36.612Z,141.43
2023-06-26T10:19:36.562Z,173.72
2023-06-26T10:20:36.848Z,183.25
2023-06-26T10:21:36.612Z,179.80
2023-06-26T10:22:36.614Z,170.92
2023-06-26T10:23:36.570Z,146.37
2023-06-26T10:24:36.534Z,138.09
2023-06-26T10:25:36.544Z,147.45
2023-06-26T10:26:36.517Z,170.03
2023-06-26T10:27:36.530Z,197.79
2023-06-26T10:28:36.554Z,244.70
2023-06-26T10:29:36.574Z,250.31
2023-06-26T10:30:36.818Z,238.74
2023-06-26T10:31:36.578Z,234.25
2023-06-26T10:32:36.503Z,255.42
2023-06-26T10:33:36.570Z,243.88
2023-06-26T10:34:36.523Z,243.32
2023-06-26T10:35:36.509Z,230.22
2023-06-26T10:36:36.713Z,208.38
2023-06-26T10:37:36.597Z,199.43
2023-06-26T10:38:36.650Z,192.04
2023-06-26T10:39:36.637Z,187.22
2023-06-26T10:40:36.905Z,177.33
2023-06-26T10:41:36.726Z,173.44
2023-06-26T10:42:36.726Z,180.75
2023-06-26T10:43:36.833Z,176.58
2023-06-26T10:44:36.845Z,158.68
2023-06-26T10:45:36.843Z,142.27
2023-06-26T10:46:36.896Z,153.90
2023-06-26T10:47:36.948Z,157.50
2023-06-26T10:48:36.982Z,127.89
2023-06-26T10:49:36.980Z,102.01
2023-06-26T10:50:37.026Z,91.50
2023-06-26T10:51:36.982Z,74.98
2023-06-26T10:52:37.011Z,54.91
2023-06-26T10:53:37.013Z,23.62
2023-06-26T10:54:36.977Z,31.65
2023-06-26T10:55:36.959Z,25.00
2023-06-26T10:56:37.010Z,25.94
2023-06-26T10:57:37.075Z,36.64
2023-06-26T10:58:37.024Z,28.48
2023-06-26T10:59:37.062Z,23.92
2023-06-26T11:00:37.122Z,25.00
2023-06-26T11:01:37.117Z,28.84
2023-06-26T11:02:37.044Z,26.41
2023-06-26T11:03:37.081Z,30.91
2023-06-26T11:04:37.144Z,25.53
2023-06-26T11:05:37.099Z,24.94
2023-06-26T11:06:37.103Z,34.70
2023-06-26T11:07:37.154Z,26.19
2023-06-26T11:08:37.150Z,25.00
2023-06-26T11:09:37.171Z,30.20
2023-06-26T11:10:37.514Z,34.44
2023-06-26T11:11:37.357Z,26.20
2023-06-26T11:12:37.281Z,25.13
2023-06-26T11:13:37.325Z,35.75
2023-06-26T11:14:37.414Z,37.50
2023-06-26T11:15:37.420Z,39.90
2023-06-26T11:16:37.413Z,41.40
2023-06-26T11:17:37.446Z,46.61
2023-06-26T11:18:37.502Z,47.32
2023-06-26T11:19:37.505Z,44.32
2023-06-26T11:20:37.892Z,56.02
2023-06-26T11:21:37.622Z,63.90
2023-06-26T11:22:37.639Z,62.74
2023-06-26T11:23:37.862Z,80.54
2023-06-26T11:24:37.622Z,84.55
2023-06-26T11:25:37.650Z,78.59
2023-06-26T11:26:37.660Z,91.51
2023-06-26T11:27:37.787Z,98.60
2023-06-26T11:28:37.679Z,100.31
2023-06-26T11:29:37.652Z,112.09
2023-06-26T11:30:37.933Z,113.02
2023-06-26T11:31:37.751Z,115.87
2023-06-26T11:32:37.807Z,118.94
2023-06-26T11:33:37.810Z,127.70
2023-06-26T11:34:37.816Z,134.12
2023-06-26T11:35:37.857Z,134.48
2023-06-26T11:36:37.903Z,132.88
2023-06-26T11:37:37.954Z,142.54
2023-06-26T11:38:37.914Z,143.85
2023-06-26T11:39:37.950Z,148.17
2023-06-26T11:40:38.501Z,163.58
2023-06-26T11:41:37.991Z,155.29
2023-06-26T11:42:37.997Z,155.16
2023-06-26T11:43:38.057Z,148.74
2023-06-26T11:44:38.081Z,157.74
2023-06-26T11:45:38.129Z,171.12
2023-06-26T11:46:38.175Z,176.39
2023-06-26T11:47:38.270Z,181.40
2023-06-26T11:48:38.393Z,179.02
2023-06-26T11:49:38.344Z,163.57
2023-06-26T11:50:38.635Z,171.18
2023-06-26T11:51:38.449Z,167.40
2023-06-26T11:52:38.456Z,169.02
2023-06-26T11:53:38.481Z,159.91
2023-06-26T11:54:38.535Z,172.26
2023-06-26T11:55:40.045Z,180.05
2023-06-26T11:56:38.696Z,174.56
2023-06-26T11:57:38.724Z,184.79
2023-06-26T11:58:38.794Z,200.55
2023-06-26T11:59:38.802Z,204.67
2023-06-26T12:00:39.043Z,206.88
2023-06-26T12:01:38.954Z,201.39
2023-06-26T12:02:39.030Z,200.51
2023-06-26T12:03:39.249Z,198.43
2023-06-26T12:04:39.151Z,195.08
2023-06-26T12:05:41.266Z,187.16
2023-06-26T12:06:39.132Z,191.87
2023-06-26T12:07:39.138Z,197.98
2023-06-26T12:08:39.152Z,197.09
2023-06-26T12:09:39.171Z,191.77
2023-06-26T12:10:39.444Z,188.83
2023-06-26T12:11:39.291Z,185.86
2023-06-26T12:12:39.298Z,182.19
2023-06-26T12:13:39.316Z,185.40
2023-06-26T12:14:39.399Z,180.88
2023-06-26T12:15:39.454Z,186.58
2023-06-26T12:16:39.460Z,181.37
2023-06-26T12:17:39.565Z,182.94
2023-06-26T12:18:39.558Z,173.57
2023-06-26T12:19:39.528Z,174.78
2023-06-26T12:20:39.787Z,172.89
2023-06-26T12:21:39.645Z,173.48
2023-06-26T12:22:39.603Z,179.96
2023-06-26T12:23:39.606Z,181.45
2023-06-26T12:24:39.631Z,194.14
2023-06-26T12:25:39.636Z,186.88
2023-06-26T12:26:39.674Z,197.58
2023-06-26T12:27:39.641Z,188.79
2023-06-26T12:28:39.695Z,187.14
2023-06-26T12:29:39.702Z,187.75
2023-06-26T12:30:39.919Z,185.38
2023-06-26T12:31:39.789Z,179.93
2023-06-26T12:32:39.845Z,182.78
2023-06-26T12:33:39.832Z,189.19
2023-06-26T12:34:39.845Z,189.83
2023-06-26T12:35:41.753Z,189.75
2023-06-26T12:36:39.879Z,191.31
2023-06-26T12:37:39.888Z,188.13
2023-06-26T12:38:39.923Z,180.54
2023-06-26T12:39:39.877Z,186.80
2023-06-26T12:40:40.101Z,190.70